sensor_id;sensor_type;location;lat;lon;timestamp;pressure;altitude;pressure_sealevel;temperature;humidity
9091;BME280;4581;42.416;25.598;2023-04-22T00:02:11;66685.94;;;0.00;nan
9091;BME280;4581;42.416;25.598;2023-04-22T00:04:42;66687.47;;;0.00;nan
9091;BME280;4581;42.416;25.598;2023-04-22T00:07:13;66692.03;;;0.00;nan
9091;BME280;4581;42.416;25.598;2023-04-22T00:09:40;66690.50;;;0.00;nan
9091;BME280;4581;42.416;25.598;2023-04-22T00:12:07;66696.63;;;0.00;nan
9091;BME280;4581;42.416;25.598;2023-04-22T00:14:34;66690.50;;;0.00;nan
9091;BME280;4581;42.416;25.598;2023-04-22T00:17:01;66690.50;;;0.00;nan
9091;BME280;4581;42.416;25.598;2023-04-22T00:19:28;66690.50;;;0.00;nan
9091;BME280;4581;42.416;25.598;2023-04-22T00:21:54;66692.03;;;0.00;nan
9091;BME280;4581;42.416;25.598;2023-04-22T00:24:21;66690.50;;;0.00;nan
9091;BME280;4581;42.416;25.598;2023-04-22T00:26:48;66699.66;;;0.00;nan
9091;BME280;4581;42.416;25.598;2023-04-22T00:29:14;66701.19;;;0.00;nan
9091;BME280;4581;42.416;25.598;2023-04-22T00:31:41;66702.72;;;0.00;nan
9091;BME280;4581;42.416;25.598;2023-04-22T00:34:08;66705.78;;;0.00;nan
9091;BME280;4581;42.416;25.598;2023-04-22T00:36:35;66711.88;;;0.00;nan
9091;BME280;4581;42.416;25.598;2023-04-22T00:39:01;66708.81;;;0.00;nan
9091;BME280;4581;42.416;25.598;2023-04-22T00:41:28;66717.97;;;0.00;nan
9091;BME280;4581;42.416;25.598;2023-04-22T00:43:57;66721.03;;;0.00;nan
9091;BME280;4581;42.416;25.598;2023-04-22T00:46:25;66728.66;;;0.00;nan
9091;BME280;4581;42.416;25.598;2023-04-22T00:48:52;66733.25;;;0.00;nan
9091;BME280;4581;42.416;25.598;2023-04-22T00:51:19;66739.34;;;0.00;nan
9091;BME280;4581;42.416;25.598;2023-04-22T00:53:46;66740.88;;;0.00;nan
9091;BME280;4581;42.416;25.598;2023-04-22T00:56:13;66746.97;;;0.00;nan
9091;BME280;4581;42.416;25.598;2023-04-22T00:58:39;66745.44;;;0.00;nan
9091;BME280;4581;42.416;25.598;2023-04-22T01:01:06;66756.13;;;0.00;nan
9091;BME280;4581;42.416;25.598;2023-04-22T01:03:35;66760.69;;;0.00;nan
9091;BME280;4581;42.416;25.598;2023-04-22T01:06:04;66763.75;;;0.00;nan
9091;BME280;4581;42.416;25.598;2023-04-22T01:08:31;66766.81;;;0.00;nan
9091;BME280;4581;42.416;25.598;2023-04-22T01:10:58;66769.84;;;0.00;nan
9091;BME280;4581;42.416;25.598;2023-04-22T01:13:25;66771.38;;;0.00;nan
9091;BME280;4581;42.416;25.598;2023-04-22T01:15:52;66774.44;;;0.00;nan
9091;BME280;4581;42.416;25.598;2023-04-22T01:18:19;66771.38;;;0.00;nan
9091;BME280;4581;42.416;25.598;2023-04-22T01:20:46;66769.84;;;0.00;nan
9091;BME280;4581;42.416;25.598;2023-04-22T01:23:19;66771.38;;;0.00;nan
9091;BME280;4581;42.416;25.598;2023-04-22T01:25:47;66769.84;;;0.00;nan
9091;BME280;4581;42.416;25.598;2023-04-22T01:28:15;66763.75;;;0.00;nan
9091;BME280;4581;42.416;25.598;2023-04-22T01:30:42;66762.22;;;0.00;nan
9091;BME280;4581;42.416;25.598;2023-04-22T01:33:10;66762.22;;;0.00;nan
9091;BME280;4581;42.416;25.598;2023-04-22T01:35:37;66754.59;;;0.00;nan
9091;BME280;4581;42.416;25.598;2023-04-22T01:38:09;66765.28;;;0.00;nan
9091;BME280;4581;42.416;25.598;2023-04-22T01:40:37;66766.81;;;0.00;nan
9091;BME280;4581;42.416;25.598;2023-04-22T01:43:04;66766.81;;;0.00;nan
9091;BME280;4581;42.416;25.598;2023-04-22T01:45:31;66766.81;;;0.00;nan
9091;BME280;4581;42.416;25.598;2023-04-22T01:47:58;66769.84;;;0.00;nan
9091;BME280;4581;42.416;25.598;2023-04-22T01:50:24;66769.84;;;0.00;nan
9091;BME280;4581;42.416;25.598;2023-04-22T01:52:51;66768.34;;;0.00;nan
9091;BME280;4581;42.416;25.598;2023-04-22T01:55:18;66762.22;;;0.00;nan
9091;BME280;4581;42.416;25.598;2023-04-22T01:57:45;66771.38;;;0.00;nan
9091;BME280;4581;42.416;25.598;2023-04-22T02:00:12;66771.38;;;0.00;nan
9091;BME280;4581;42.416;25.598;2023-04-22T02:02:39;66780.53;;;0.00;nan
9091;BME280;4581;42.416;25.598;2023-04-22T02:05:07;66772.91;;;0.00;nan
9091;BME280;4581;42.416;25.598;2023-04-22T02:07:34;66782.06;;;0.00;nan
9091;BME280;4581;42.416;25.598;2023-04-22T02:10:05;66788.16;;;0.00;nan
9091;BME280;4581;42.416;25.598;2023-04-22T02:12:32;66786.66;;;0.00;nan
9091;BME280;4581;42.416;25.598;2023-04-22T02:14:58;66788.16;;;0.00;nan
9091;BME280;4581;42.416;25.598;2023-04-22T02:17:25;66777.50;;;0.00;nan
9091;BME280;4581;42.416;25.598;2023-04-22T02:19:52;66774.44;;;0.00;nan
9091;BME280;4581;42.416;25.598;2023-04-22T02:22:21;66777.50;;;0.00;nan
9091;BME280;4581;42.416;25.598;2023-04-22T02:24:49;66780.53;;;0.00;nan
9091;BME280;4581;42.416;25.598;2023-04-22T02:27:15;66791.22;;;0.00;nan
9091;BME280;4581;42.416;25.598;2023-04-22T02:29:42;66786.66;;;0.00;nan
9091;BME280;4581;42.416;25.598;2023-04-22T02:32:09;66788.16;;;0.00;nan
9091;BME280;4581;42.416;25.598;2023-04-22T02:34:35;66788.16;;;0.00;nan
9091;BME280;4581;42.416;25.598;2023-04-22T02:37:02;66788.16;;;0.00;nan
9091;BME280;4581;42.416;25.598;2023-04-22T02:39:29;66792.75;;;0.00;nan
9091;BME280;4581;42.416;25.598;2023-04-22T02:41:56;66794.28;;;0.00;nan
9091;BME280;4581;42.416;25.598;2023-04-22T02:44:22;66812.59;;;0.00;nan
9091;BME280;4581;42.416;25.598;2023-04-22T02:46:49;66809.53;;;0.00;nan
9091;BME280;4581;42.416;25.598;2023-04-22T02:49:16;66809.53;;;0.00;nan
9091;BME280;4581;42.416;25.598;2023-04-22T02:51:42;66797.31;;;0.00;nan
9091;BME280;4581;42.416;25.598;2023-04-22T02:54:09;66792.75;;;0.00;nan
9091;BME280;4581;42.416;25.598;2023-04-22T02:56:36;66795.81;;;0.00;nan
9091;BME280;4581;42.416;25.598;2023-04-22T02:59:03;66797.31;;;0.00;nan
9091;BME280;4581;42.416;25.598;2023-04-22T03:01:29;66798.84;;;0.00;nan
9091;BME280;4581;42.416;25.598;2023-04-22T03:03:57;66800.38;;;0.00;nan
9091;BME280;4581;42.416;25.598;2023-04-22T03:06:24;66800.38;;;0.00;nan
9091;BME280;4581;42.416;25.598;2023-04-22T03:08:51;66789.69;;;0.00;nan
9091;BME280;4581;42.416;25.598;2023-04-22T03:11:18;66794.28;;;0.00;nan
9091;BME280;4581;42.416;25.598;2023-04-22T03:13:44;66785.13;;;0.00;nan
9091;BME280;4581;42.416;25.598;2023-04-22T03:16:11;66779.00;;;0.00;nan
9091;BME280;4581;42.416;25.598;2023-04-22T03:18:38;66774.44;;;0.00;nan
9091;BME280;4581;42.416;25.598;2023-04-22T03:21:05;66771.38;;;0.00;nan
9091;BME280;4581;42.416;25.598;2023-04-22T03:23:32;66769.84;;;0.00;nan
9091;BME280;4581;42.416;25.598;2023-04-22T03:25:59;66769.84;;;0.00;nan
9091;BME280;4581;42.416;25.598;2023-04-22T03:28:26;66763.75;;;0.00;nan
9091;BME280;4581;42.416;25.598;2023-04-22T03:30:52;66757.66;;;0.00;nan
9091;BME280;4581;42.416;25.598;2023-04-22T03:33:19;66751.53;;;0.00;nan
9091;BME280;4581;42.416;25.598;2023-04-22T03:35:49;66754.59;;;0.00;nan
9091;BME280;4581;42.416;25.598;2023-04-22T03:38:15;66759.19;;;0.00;nan
9091;BME280;4581;42.416;25.598;2023-04-22T03:40:42;66760.69;;;0.00;nan
9091;BME280;4581;42.416;25.598;2023-04-22T03:43:09;66756.13;;;0.00;nan
9091;BME280;4581;42.416;25.598;2023-04-22T03:45:35;66757.66;;;0.00;nan
9091;BME280;4581;42.416;25.598;2023-04-22T03:48:02;66753.06;;;0.00;nan
9091;BME280;4581;42.416;25.598;2023-04-22T03:50:29;66745.44;;;0.00;nan
9091;BME280;4581;42.416;25.598;2023-04-22T03:52:56;66739.34;;;0.00;nan
9091;BME280;4581;42.416;25.598;2023-04-22T03:55:23;66745.44;;;0.00;nan
9091;BME280;4581;42.416;25.598;2023-04-22T03:57:49;66739.34;;;0.00;nan
9091;BME280;4581;42.416;25.598;2023-04-22T04:00:16;66739.34;;;0.00;nan
9091;BME280;4581;42.416;25.598;2023-04-22T04:02:43;66737.81;;;0.00;nan
9091;BME280;4581;42.416;25.598;2023-04-22T04:05:10;66736.28;;;0.00;nan
9091;BME280;4581;42.416;25.598;2023-04-22T04:07:37;66737.81;;;0.00;nan
9091;BME280;4581;42.416;25.598;2023-04-22T04:10:04;66742.41;;;0.00;nan
9091;BME280;4581;42.416;25.598;2023-04-22T04:12:31;66736.28;;;0.00;nan
9091;BME280;4581;42.416;25.598;2023-04-22T04:14:57;66739.34;;;0.00;nan
9091;BME280;4581;42.416;25.598;2023-04-22T04:17:24;66734.75;;;0.00;nan
9091;BME280;4581;42.416;25.598;2023-04-22T04:19:52;66736.28;;;0.00;nan
9091;BME280;4581;42.416;25.598;2023-04-22T04:22:20;66724.09;;;0.00;nan
9091;BME280;4581;42.416;25.598;2023-04-22T04:24:46;66716.44;;;0.00;nan
9091;BME280;4581;42.416;25.598;2023-04-22T04:27:14;66721.03;;;0.00;nan
9091;BME280;4581;42.416;25.598;2023-04-22T04:29:40;66721.03;;;0.00;nan
9091;BME280;4581;42.416;25.598;2023-04-22T04:32:08;66714.94;;;0.00;nan
9091;BME280;4581;42.416;25.598;2023-04-22T04:34:35;66719.50;;;0.00;nan
9091;BME280;4581;42.416;25.598;2023-04-22T04:37:03;66714.94;;;0.00;nan
9091;BME280;4581;42.416;25.598;2023-04-22T04:39:29;66711.88;;;0.00;nan
9091;BME280;4581;42.416;25.598;2023-04-22T04:41:56;66710.34;;;0.00;nan
9091;BME280;4581;42.416;25.598;2023-04-22T04:44:24;66707.28;;;0.00;nan
9091;BME280;4581;42.416;25.598;2023-04-22T04:46:53;66705.78;;;0.00;nan
9091;BME280;4581;42.416;25.598;2023-04-22T04:49:20;66704.25;;;0.00;nan
9091;BME280;4581;42.416;25.598;2023-04-22T04:51:47;66699.66;;;0.00;nan
9091;BME280;4581;42.416;25.598;2023-04-22T04:54:15;66702.72;;;0.00;nan
9091;BME280;4581;42.416;25.598;2023-04-22T04:56:42;66701.19;;;0.00;nan
9091;BME280;4581;42.416;25.598;2023-04-22T04:59:08;66693.56;;;0.00;nan
9091;BME280;4581;42.416;25.598;2023-04-22T05:01:35;66687.47;;;0.00;nan
9091;BME280;4581;42.416;25.598;2023-04-22T05:04:02;66685.94;;;0.00;nan
9091;BME280;4581;42.416;25.598;2023-04-22T05:06:29;66687.47;;;0.00;nan
9091;BME280;4581;42.416;25.598;2023-04-22T05:08:57;66682.88;;;0.00;nan
9091;BME280;4581;42.416;25.598;2023-04-22T05:11:24;66684.41;;;0.00;nan
9091;BME280;4581;42.416;25.598;2023-04-22T05:13:50;66684.41;;;0.00;nan
9091;BME280;4581;42.416;25.598;2023-04-22T05:16:17;66678.31;;;0.00;nan
9091;BME280;4581;42.416;25.598;2023-04-22T05:18:44;66675.25;;;0.00;nan
9091;BME280;4581;42.416;25.598;2023-04-22T05:21:11;66670.69;;;0.00;nan
9091;BME280;4581;42.416;25.598;2023-04-22T05:23:37;66669.16;;;0.00;nan
9091;BME280;4581;42.416;25.598;2023-04-22T05:26:04;66656.94;;;0.00;nan
9091;BME280;4581;42.416;25.598;2023-04-22T05:28:31;66656.94;;;0.00;nan
9091;BME280;4581;42.416;25.598;2023-04-22T05:30:58;66649.31;;;0.00;nan
9091;BME280;4581;42.416;25.598;2023-04-22T05:33:24;66638.63;;;0.00;nan
9091;BME280;4581;42.416;25.598;2023-04-22T05:35:51;66644.72;;;0.00;nan
9091;BME280;4581;42.416;25.598;2023-04-22T05:38:19;66646.25;;;0.00;nan
9091;BME280;4581;42.416;25.598;2023-04-22T05:40:45;66643.22;;;0.00;nan
9091;BME280;4581;42.416;25.598;2023-04-22T05:43:12;66647.78;;;0.00;nan
9091;BME280;4581;42.416;25.598;2023-04-22T05:45:39;66650.84;;;0.00;nan
9091;BME280;4581;42.416;25.598;2023-04-22T05:48:06;66653.88;;;0.00;nan
9091;BME280;4581;42.416;25.598;2023-04-22T05:50:32;66649.31;;;0.00;nan
9091;BME280;4581;42.416;25.598;2023-04-22T05:52:59;66634.06;;;0.00;nan
9091;BME280;4581;42.416;25.598;2023-04-22T05:55:26;66637.09;;;0.00;nan
9091;BME280;4581;42.416;25.598;2023-04-22T05:57:53;66614.22;;;0.00;nan
9091;BME280;4581;42.416;25.598;2023-04-22T06:00:19;66591.31;;;0.00;nan
9091;BME280;4581;42.416;25.598;2023-04-22T06:02:46;66577.59;;;0.00;nan
9091;BME280;4581;42.416;25.598;2023-04-22T06:05:13;66571.50;;;0.00;nan
9091;BME280;4581;42.416;25.598;2023-04-22T06:07:40;66551.66;;;0.00;nan
9091;BME280;4581;42.416;25.598;2023-04-22T06:10:07;66519.63;;;0.00;nan
9091;BME280;4581;42.416;25.598;2023-04-22T06:12:34;66472.31;;;0.00;nan
9091;BME280;4581;42.416;25.598;2023-04-22T06:15:01;66418.91;;;0.00;nan
9091;BME280;4581;42.416;25.598;2023-04-22T06:17:28;66428.06;;;0.00;nan
9091;BME280;4581;42.416;25.598;2023-04-22T06:19:55;66425.00;;;0.00;nan
9091;BME280;4581;42.416;25.598;2023-04-22T06:22:21;66405.16;;;0.00;nan
9091;BME280;4581;42.416;25.598;2023-04-22T06:24:48;66402.13;;;0.00;nan
9091;BME280;4581;42.416;25.598;2023-04-22T06:27:15;66330.41;;;0.00;nan
9091;BME280;4581;42.416;25.598;2023-04-22T06:29:41;66284.63;;;0.00;nan
9091;BME280;4581;42.416;25.598;2023-04-22T06:32:08;66212.91;;;0.00;nan
9091;BME280;4581;42.416;25.598;2023-04-22T06:34:35;66182.38;;;0.00;nan
9091;BME280;4581;42.416;25.598;2023-04-22T06:37:03;66171.72;;;0.00;nan
9091;BME280;4581;42.416;25.598;2023-04-22T06:39:30;66214.44;;;0.00;nan
9091;BME280;4581;42.416;25.598;2023-04-22T06:41:57;66193.06;;;0.00;nan
9091;BME280;4581;42.416;25.598;2023-04-22T06:44:24;66144.25;;;0.00;nan
9091;BME280;4581;42.416;25.598;2023-04-22T06:46:51;66098.47;;;0.00;nan
9091;BME280;4581;42.416;25.598;2023-04-22T06:49:19;66061.84;;;0.00;nan
9091;BME280;4581;42.416;25.598;2023-04-22T06:51:45;66055.75;;;0.00;nan
9091;BME280;4581;42.416;25.598;2023-04-22T06:54:12;66028.28;;;0.00;nan
9091;BME280;4581;42.416;25.598;2023-04-22T06:56:39;66026.75;;;0.00;nan
9091;BME280;4581;42.416;25.598;2023-04-22T06:59:05;66061.84;;;0.00;nan
9091;BME280;4581;42.416;25.598;2023-04-22T07:01:33;66052.69;;;0.00;nan
9091;BME280;4581;42.416;25.598;2023-04-22T07:03:59;66087.78;;;0.00;nan
9091;BME280;4581;42.416;25.598;2023-04-22T07:06:26;66075.56;;;0.00;nan
9091;BME280;4581;42.416;25.598;2023-04-22T07:08:53;66080.16;;;0.00;nan
9091;BME280;4581;42.416;25.598;2023-04-22T07:11:20;66072.53;;;0.00;nan
9091;BME280;4581;42.416;25.598;2023-04-22T07:13:47;66118.31;;;0.00;nan
9091;BME280;4581;42.416;25.598;2023-04-22T07:16:14;66104.56;;;0.00;nan
9091;BME280;4581;42.416;25.598;2023-04-22T07:18:41;66104.56;;;0.00;nan
9091;BME280;4581;42.416;25.598;2023-04-22T07:21:07;66095.41;;;0.00;nan
9091;BME280;4581;42.416;25.598;2023-04-22T07:23:34;66109.16;;;0.00;nan
9091;BME280;4581;42.416;25.598;2023-04-22T07:26:01;66084.72;;;0.00;nan
9091;BME280;4581;42.416;25.598;2023-04-22T07:28:28;66066.44;;;0.00;nan
9091;BME280;4581;42.416;25.598;2023-04-22T07:30:54;66081.69;;;0.00;nan
9091;BME280;4581;42.416;25.598;2023-04-22T07:33:21;66064.91;;;0.00;nan
9091;BME280;4581;42.416;25.598;2023-04-22T07:35:48;66080.16;;;0.00;nan
9091;BME280;4581;42.416;25.598;2023-04-22T07:38:15;66119.84;;;0.00;nan
9091;BME280;4581;42.416;25.598;2023-04-22T07:40:41;66098.47;;;0.00;nan
9091;BME280;4581;42.416;25.598;2023-04-22T07:43:08;66106.09;;;0.00;nan
9091;BME280;4581;42.416;25.598;2023-04-22T07:45:35;66147.28;;;0.00;nan
9091;BME280;4581;42.416;25.598;2023-04-22T07:48:03;66141.19;;;0.00;nan
9091;BME280;4581;42.416;25.598;2023-04-22T07:50:29;66109.16;;;0.00;nan
9091;BME280;4581;42.416;25.598;2023-04-22T07:52:56;66116.78;;;0.00;nan
9091;BME280;4581;42.416;25.598;2023-04-22T07:55:23;66110.69;;;0.00;nan
9091;BME280;4581;42.416;25.598;2023-04-22T07:57:50;66106.09;;;0.00;nan
9091;BME280;4581;42.416;25.598;2023-04-22T08:00:16;66122.88;;;0.00;nan
9091;BME280;4581;42.416;25.598;2023-04-22T08:02:43;66122.88;;;0.00;nan
9091;BME280;4581;42.416;25.598;2023-04-22T08:05:10;66119.84;;;0.00;nan
9091;BME280;4581;42.416;25.598;2023-04-22T08:07:37;66127.47;;;0.00;nan
9091;BME280;4581;42.416;25.598;2023-04-22T08:10:04;66132.03;;;0.00;nan
9091;BME280;4581;42.416;25.598;2023-04-22T08:12:31;66148.81;;;0.00;nan
9091;BME280;4581;42.416;25.598;2023-04-22T08:14:58;66124.41;;;0.00;nan
9091;BME280;4581;42.416;25.598;2023-04-22T08:17:25;66121.34;;;0.00;nan
9091;BME280;4581;42.416;25.598;2023-04-22T08:19:51;66089.31;;;0.00;nan
9091;BME280;4581;42.416;25.598;2023-04-22T08:22:18;66071.00;;;0.00;nan
9091;BME280;4581;42.416;25.598;2023-04-22T08:24:45;66074.06;;;0.00;nan
9091;BME280;4581;42.416;25.598;2023-04-22T08:27:11;66075.56;;;0.00;nan
9091;BME280;4581;42.416;25.598;2023-04-22T08:29:38;66054.22;;;0.00;nan
9091;BME280;4581;42.416;25.598;2023-04-22T08:32:05;66026.75;;;0.00;nan
9091;BME280;4581;42.416;25.598;2023-04-22T08:34:32;65993.19;;;0.00;nan
9091;BME280;4581;42.416;25.598;2023-04-22T08:36:58;66022.16;;;0.00;nan
9091;BME280;4581;42.416;25.598;2023-04-22T08:39:25;66003.88;;;0.00;nan
9091;BME280;4581;42.416;25.598;2023-04-22T08:41:52;65945.88;;;0.00;nan
9091;BME280;4581;42.416;25.598;2023-04-22T08:44:21;65964.19;;;0.00;nan
9091;BME280;4581;42.416;25.598;2023-04-22T08:46:48;65951.97;;;0.00;nan
9091;BME280;4581;42.416;25.598;2023-04-22T08:49:15;65930.63;;;0.00;nan
9091;BME280;4581;42.416;25.598;2023-04-22T08:51:43;65929.09;;;0.00;nan
9091;BME280;4581;42.416;25.598;2023-04-22T08:54:11;65877.22;;;0.00;nan
9091;BME280;4581;42.416;25.598;2023-04-22T08:56:40;65894.00;;;0.00;nan
9091;BME280;4581;42.416;25.598;2023-04-22T08:59:11;65919.94;;;0.00;nan
9091;BME280;4581;42.416;25.598;2023-04-22T09:01:41;65884.84;;;0.00;nan
9091;BME280;4581;42.416;25.598;2023-04-22T09:04:09;65930.63;;;0.00;nan
9091;BME280;4581;42.416;25.598;2023-04-22T09:06:37;65939.78;;;0.00;nan
9091;BME280;4581;42.416;25.598;2023-04-22T09:09:04;65945.88;;;0.00;nan
9091;BME280;4581;42.416;25.598;2023-04-22T09:11:33;65977.91;;;0.00;nan
9091;BME280;4581;42.416;25.598;2023-04-22T09:14:00;65993.19;;;0.00;nan
9091;BME280;4581;42.416;25.598;2023-04-22T09:16:31;66019.13;;;0.00;nan
9091;BME280;4581;42.416;25.598;2023-04-22T09:18:58;66049.63;;;0.00;nan
9091;BME280;4581;42.416;25.598;2023-04-22T09:21:25;66054.22;;;0.00;nan
9091;BME280;4581;42.416;25.598;2023-04-22T09:23:54;66043.53;;;0.00;nan
9091;BME280;4581;42.416;25.598;2023-04-22T09:26:23;66067.94;;;0.00;nan
9091;BME280;4581;42.416;25.598;2023-04-22T09:28:56;66113.72;;;0.00;nan
9091;BME280;4581;42.416;25.598;2023-04-22T09:31:27;66086.25;;;0.00;nan
9091;BME280;4581;42.416;25.598;2023-04-22T09:33:56;66083.22;;;0.00;nan
9091;BME280;4581;42.416;25.598;2023-04-22T09:36:28;66110.69;;;0.00;nan
9091;BME280;4581;42.416;25.598;2023-04-22T09:39:00;66092.38;;;0.00;nan
9091;BME280;4581;42.416;25.598;2023-04-22T09:41:31;66071.00;;;0.00;nan
9091;BME280;4581;42.416;25.598;2023-04-22T09:43:59;66089.31;;;0.00;nan
9091;BME280;4581;42.416;25.598;2023-04-22T09:46:28;66083.22;;;0.00;nan
9091;BME280;4581;42.416;25.598;2023-04-22T09:48:56;66064.91;;;0.00;nan
9091;BME280;4581;42.416;25.598;2023-04-22T09:51:25;66074.06;;;0.00;nan
9091;BME280;4581;42.416;25.598;2023-04-22T09:54:03;66058.78;;;0.00;nan
9091;BME280;4581;42.416;25.598;2023-04-22T09:56:48;66042.00;;;0.00;nan
9091;BME280;4581;42.416;25.598;2023-04-22T09:59:20;66003.88;;;0.00;nan
9091;BME280;4581;42.416;25.598;2023-04-22T10:01:49;66014.53;;;0.00;nan
9091;BME280;4581;42.416;25.598;2023-04-22T10:04:16;66008.44;;;0.00;nan
9091;BME280;4581;42.416;25.598;2023-04-22T10:06:47;65985.56;;;0.00;nan
9091;BME280;4581;42.416;25.598;2023-04-22T10:09:17;66016.06;;;0.00;nan
9091;BME280;4581;42.416;25.598;2023-04-22T10:11:44;65994.72;;;0.00;nan
9091;BME280;4581;42.416;25.598;2023-04-22T10:14:11;65915.38;;;0.00;nan
9091;BME280;4581;42.416;25.598;2023-04-22T10:16:42;65839.06;;;0.00;nan
9091;BME280;4581;42.416;25.598;2023-04-22T10:19:11;65814.66;;;0.00;nan
9091;BME280;4581;42.416;25.598;2023-04-22T10:21:40;65837.53;;;0.00;nan
9091;BME280;4581;42.416;25.598;2023-04-22T10:24:14;65811.59;;;0.00;nan
9091;BME280;4581;42.416;25.598;2023-04-22T10:26:55;65770.41;;;0.00;nan
9091;BME280;4581;42.416;25.598;2023-04-22T10:29:25;65738.34;;;0.00;nan
9091;BME280;4581;42.416;25.598;2023-04-22T10:34:45;65732.25;;;0.00;nan
9091;BME280;4581;42.416;25.598;2023-04-22T10:37:13;65732.25;;;0.00;nan
9091;BME280;4581;42.416;25.598;2023-04-22T10:40:07;65759.72;;;0.00;nan
9091;BME280;4581;42.416;25.598;2023-04-22T10:42:34;65744.47;;;0.00;nan
9091;BME280;4581;42.416;25.598;2023-04-22T10:45:03;65729.19;;;0.00;nan
9091;BME280;4581;42.416;25.598;2023-04-22T10:47:37;65758.19;;;0.00;nan
9091;BME280;4581;42.416;25.598;2023-04-22T10:50:23;65784.13;;;0.00;nan
9091;BME280;4581;42.416;25.598;2023-04-22T10:52:56;65793.28;;;0.00;nan
9091;BME280;4581;42.416;25.598;2023-04-22T10:55:23;65808.56;;;0.00;nan
9091;BME280;4581;42.416;25.598;2023-04-22T10:57:52;65834.50;;;0.00;nan
9091;BME280;4581;42.416;25.598;2023-04-22T11:00:28;65852.81;;;0.00;nan
9091;BME280;4581;42.416;25.598;2023-04-22T11:03:09;65884.84;;;0.00;nan
9091;BME280;4581;42.416;25.598;2023-04-22T11:05:37;65924.50;;;0.00;nan
9091;BME280;4581;42.416;25.598;2023-04-22T11:08:19;65984.03;;;0.00;nan
9091;BME280;4581;42.416;25.598;2023-04-22T11:10:50;65984.03;;;0.00;nan
9091;BME280;4581;42.416;25.598;2023-04-22T11:13:19;66009.97;;;0.00;nan
9091;BME280;4581;42.416;25.598;2023-04-22T11:15:48;66020.66;;;0.00;nan
9091;BME280;4581;42.416;25.598;2023-04-22T11:18:21;66046.59;;;0.00;nan
9091;BME280;4581;42.416;25.598;2023-04-22T11:20:49;66078.63;;;0.00;nan
9091;BME280;4581;42.416;25.598;2023-04-22T11:23:27;66104.56;;;0.00;nan
9091;BME280;4581;42.416;25.598;2023-04-22T11:25:59;66113.72;;;0.00;nan
9091;BME280;4581;42.416;25.598;2023-04-22T11:28:26;66130.50;;;0.00;nan
9091;BME280;4581;42.416;25.598;2023-04-22T11:31:07;66162.56;;;0.00;nan
9091;BME280;4581;42.416;25.598;2023-04-22T11:33:36;66183.91;;;0.00;nan
9091;BME280;4581;42.416;25.598;2023-04-22T11:36:09;66203.75;;;0.00;nan
9091;BME280;4581;42.416;25.598;2023-04-22T11:38:36;66214.44;;;0.00;nan
9091;BME280;4581;42.416;25.598;2023-04-22T11:41:02;66208.34;;;0.00;nan
9091;BME280;4581;42.416;25.598;2023-04-22T11:43:30;66219.00;;;0.00;nan
9091;BME280;4581;42.416;25.598;2023-04-22T11:45:57;66226.66;;;0.00;nan
9091;BME280;4581;42.416;25.598;2023-04-22T11:48:24;66228.16;;;0.00;nan
9091;BME280;4581;42.416;25.598;2023-04-22T11:51:06;66226.66;;;0.00;nan
9091;BME280;4581;42.416;25.598;2023-04-22T11:53:34;66220.53;;;0.00;nan
9091;BME280;4581;42.416;25.598;2023-04-22T11:56:02;66215.97;;;0.00;nan
9091;BME280;4581;42.416;25.598;2023-04-22T11:58:29;66229.69;;;0.00;nan
9091;BME280;4581;42.416;25.598;2023-04-22T12:00:58;66234.28;;;0.00;nan
9091;BME280;4581;42.416;25.598;2023-04-22T12:03:28;66232.75;;;0.00;nan
9091;BME280;4581;42.416;25.598;2023-04-22T12:06:05;66225.13;;;0.00;nan
9091;BME280;4581;42.416;25.598;2023-04-22T12:08:33;66232.75;;;0.00;nan
9091;BME280;4581;42.416;25.598;2023-04-22T12:11:04;66220.53;;;0.00;nan
9091;BME280;4581;42.416;25.598;2023-04-22T12:13:39;66215.97;;;0.00;nan
9091;BME280;4581;42.416;25.598;2023-04-22T12:16:14;66211.38;;;0.00;nan
9091;BME280;4581;42.416;25.598;2023-04-22T12:18:51;66208.34;;;0.00;nan
9091;BME280;4581;42.416;25.598;2023-04-22T12:21:23;66206.81;;;0.00;nan
9091;BME280;4581;42.416;25.598;2023-04-22T12:23:56;66205.28;;;0.00;nan
9091;BME280;4581;42.416;25.598;2023-04-22T12:26:25;66205.28;;;0.00;nan
9091;BME280;4581;42.416;25.598;2023-04-22T12:28:56;66196.13;;;0.00;nan
9091;BME280;4581;42.416;25.598;2023-04-22T12:31:26;66193.06;;;0.00;nan
9091;BME280;4581;42.416;25.598;2023-04-22T12:33:53;66186.97;;;0.00;nan
9091;BME280;4581;42.416;25.598;2023-04-22T12:36:20;66177.81;;;0.00;nan
9091;BME280;4581;42.416;25.598;2023-04-22T12:38:47;66174.75;;;0.00;nan
9091;BME280;4581;42.416;25.598;2023-04-22T12:41:14;66177.81;;;0.00;nan
9091;BME280;4581;42.416;25.598;2023-04-22T12:43:44;66194.59;;;0.00;nan
9091;BME280;4581;42.416;25.598;2023-04-22T12:46:10;66199.19;;;0.00;nan
9091;BME280;4581;42.416;25.598;2023-04-22T12:48:37;66186.97;;;0.00;nan
9091;BME280;4581;42.416;25.598;2023-04-22T12:51:05;66190.03;;;0.00;nan
9091;BME280;4581;42.416;25.598;2023-04-22T12:53:32;66185.44;;;0.00;nan
9091;BME280;4581;42.416;25.598;2023-04-22T12:56:00;66177.81;;;0.00;nan
9091;BME280;4581;42.416;25.598;2023-04-22T12:58:26;66174.75;;;0.00;nan
9091;BME280;4581;42.416;25.598;2023-04-22T13:00:53;66162.56;;;0.00;nan
9091;BME280;4581;42.416;25.598;2023-04-22T13:03:20;66154.94;;;0.00;nan
9091;BME280;4581;42.416;25.598;2023-04-22T13:05:47;66150.34;;;0.00;nan
9091;BME280;4581;42.416;25.598;2023-04-22T13:08:13;66145.78;;;0.00;nan
9091;BME280;4581;42.416;25.598;2023-04-22T13:10:40;66132.03;;;0.00;nan
9091;BME280;4581;42.416;25.598;2023-04-22T13:13:07;66121.34;;;0.00;nan
9091;BME280;4581;42.416;25.598;2023-04-22T13:15:37;66115.25;;;0.00;nan
9091;BME280;4581;42.416;25.598;2023-04-22T13:18:04;66104.56;;;0.00;nan
9091;BME280;4581;42.416;25.598;2023-04-22T13:20:31;66086.25;;;0.00;nan
9091;BME280;4581;42.416;25.598;2023-04-22T13:22:58;66071.00;;;0.00;nan
9091;BME280;4581;42.416;25.598;2023-04-22T13:25:25;66063.38;;;0.00;nan
9091;BME280;4581;42.416;25.598;2023-04-22T13:27:51;66074.06;;;0.00;nan
9091;BME280;4581;42.416;25.598;2023-04-22T13:30:18;66086.25;;;0.00;nan
9091;BME280;4581;42.416;25.598;2023-04-22T13:32:45;66106.09;;;0.00;nan
9091;BME280;4581;42.416;25.598;2023-04-22T13:35:12;66103.03;;;0.00;nan
9091;BME280;4581;42.416;25.598;2023-04-22T13:37:39;66110.69;;;0.00;nan
9091;BME280;4581;42.416;25.598;2023-04-22T13:40:06;66110.69;;;0.00;nan
9091;BME280;4581;42.416;25.598;2023-04-22T13:42:33;66103.03;;;0.00;nan
9091;BME280;4581;42.416;25.598;2023-04-22T13:45:00;66087.78;;;0.00;nan
9091;BME280;4581;42.416;25.598;2023-04-22T13:47:27;66089.31;;;0.00;nan
9091;BME280;4581;42.416;25.598;2023-04-22T13:49:54;66080.16;;;0.00;nan
9091;BME280;4581;42.416;25.598;2023-04-22T13:52:20;66074.06;;;0.00;nan